logo
Search for airport 
image banner adimage banner adimage banner ad
image banner ad

DIKB - Bouake

Located in , Cote D'Ivoire

ICAO - , IATA -

Data provided by Airmate  

General information

Coordinates: N7°45'9" W5°4'4"
Elevation is 1231 feet MSL.
Magnetic variation is -5° East
View others Airports in Vallée du Bandama

Operational data

Special qualification required
Current time UTC:
Current local time:
Weather at : DIBK - Bouake ( 0 km )
METAR: DIBK 220900Z 22008KT 9999 FEW011 23/23 Q1012 NOSIG
TAF: TAF DIBK 220500Z 2206/2306 18008KT 8000 SCT012 PROB30 TEMPO 2216/2220 TS BKN013 FEW023CB
View NOTAMs / SUP AIP / TFR affecting this airport [VIEW]
Communications frequencies: [VIEW]

Runways:

RWY identifierQFULength (ft)Width (ft)SurfaceLDA (ft)
2110827148ASPH
0310827148ASPH

Airport contact information

Address: Cote D'Ivoire

Satellite view of DIKB